Time;durP1;ratioP1;P1;durP2;ratioP2;P2;SDS_P1;SDS_P2;PMS_P1;PMS_P2;Temp;Humidity;BMP_temperature;BMP_pressure;BME280_temperature;BME280_humidity;BME280_pressure;Samples;Min_cycle;Max_cycle;Signal;HPM_P1;HPM_P2
2023/04/20 00:01:38;;;;;;;11.40;7.47;;;;;;;10.30;100.00;99676.00;5107539;28;20463;-32
2023/04/20 00:04:04;;;;;;;11.50;7.30;;;;;;;10.40;100.00;99661.09;5107635;28;20446;-31
2023/04/20 00:06:31;;;;;;;12.23;7.57;;;;;;;9.96;100.00;99659.63;5107447;28;20031;-31
2023/04/20 00:09:00;;;;;;;13.07;7.57;;;;;;;9.92;100.00;99648.59;5107431;28;20030;-32
2023/04/20 00:11:28;;;;;;;11.70;6.90;;;;;;;9.81;100.00;99652.84;5107172;28;20031;-31
2023/04/20 00:13:54;;;;;;;12.30;7.07;;;;;;;9.76;100.00;99655.34;5107236;28;20059;-32
2023/04/20 00:16:19;;;;;;;11.80;6.40;;;;;;;9.76;100.00;99650.03;5107080;28;20128;-31
2023/04/20 00:18:45;;;;;;;9.18;6.40;;;;;;;9.89;100.00;99633.09;5107549;28;20055;-31
2023/04/20 00:21:12;;;;;;;12.65;6.47;;;;;;;9.91;100.00;99647.00;5107022;28;20034;-32
2023/04/20 00:23:37;;;;;;;11.70;6.38;;;;;;;9.75;100.00;99642.28;5106756;28;20629;-33
2023/04/20 00:26:03;;;;;;;10.00;6.32;;;;;;;9.48;100.00;99637.28;5107214;28;20027;-32
2023/04/20 00:28:28;;;;;;;12.98;6.90;;;;;;;9.77;100.00;99634.88;5107197;28;20020;-31
2023/04/20 00:30:54;;;;;;;11.98;6.80;;;;;;;9.93;100.00;99636.94;5102773;28;20019;-33
2023/04/20 00:33:19;;;;;;;10.45;6.45;;;;;;;9.96;100.00;99639.13;5102632;28;20035;-31
2023/04/20 00:35:45;;;;;;;11.38;7.20;;;;;;;10.16;100.00;99638.06;5106543;28;20031;-34
2023/04/20 00:38:10;;;;;;;10.43;6.72;;;;;;;9.98;100.00;99629.06;5106049;28;20016;-32
2023/04/20 00:40:36;;;;;;;11.02;6.93;;;;;;;9.90;100.00;99629.38;5106893;28;20734;-32
2023/04/20 00:43:11;;;;;;;11.77;7.60;;;;;;;9.91;100.00;99624.84;5106374;28;20047;-33
2023/04/20 00:45:37;;;;;;;17.65;8.60;;;;;;;10.10;100.00;99633.63;5106333;28;20047;-31
2023/04/20 00:48:03;;;;;;;17.40;9.05;;;;;;;10.01;100.00;99639.28;5106296;28;20472;-31
2023/04/20 00:50:29;;;;;;;39.25;11.50;;;;;;;9.72;100.00;99632.06;5106052;28;20081;-32
2023/04/20 00:52:55;;;;;;;38.22;10.88;;;;;;;9.47;100.00;99634.81;5105802;28;20047;-33
2023/04/20 00:55:21;;;;;;;47.85;9.68;;;;;;;9.23;100.00;99639.97;5105998;28;20070;-31
2023/04/20 00:57:47;;;;;;;31.55;9.15;;;;;;;8.99;100.00;99645.13;5106348;27;20047;-32
2023/04/20 01:00:13;;;;;;;53.70;9.65;;;;;;;9.02;100.00;99633.22;5105797;28;20026;-31
2023/04/20 01:02:39;;;;;;;22.33;8.68;;;;;;;9.39;100.00;99643.91;5106197;28;20411;-34
2023/04/20 01:05:05;;;;;;;14.43;8.35;;;;;;;9.62;100.00;99638.75;5106327;28;20032;-33
2023/04/20 01:07:31;;;;;;;18.85;8.70;;;;;;;9.38;100.00;99642.28;5101464;28;20040;-31
2023/04/20 01:09:57;;;;;;;51.15;10.15;;;;;;;9.31;100.00;99630.88;5105211;28;20386;-32
2023/04/20 01:12:22;;;;;;;57.97;10.40;;;;;;;9.40;100.00;99643.69;5106191;28;20055;-31
2023/04/20 01:14:47;;;;;;;18.85;9.85;;;;;;;9.44;100.00;99630.75;5106823;28;20065;-32
2023/04/20 01:17:13;;;;;;;17.55;9.80;;;;;;;9.57;100.00;99641.25;5106024;28;20032;-31
2023/04/20 01:19:40;;;;;;;17.80;9.00;;;;;;;9.33;100.00;99639.47;5106212;28;20104;-32
2023/04/20 01:22:06;;;;;;;14.68;8.57;;;;;;;9.51;100.00;99636.81;5105773;28;20523;-31
2023/04/20 01:24:32;;;;;;;12.10;7.75;;;;;;;9.53;100.00;99640.06;5106443;28;20031;-31
2023/04/20 01:26:58;;;;;;;11.90;7.22;;;;;;;9.63;100.00;99639.53;5106307;28;20031;-32
2023/04/20 01:29:23;;;;;;;10.32;6.63;;;;;;;9.19;100.00;99630.81;5106225;28;20028;-31
2023/04/20 01:31:49;;;;;;;11.68;6.75;;;;;;;8.94;100.00;99620.22;5106247;28;20798;-31
2023/04/20 01:34:16;;;;;;;11.55;7.30;;;;;;;8.89;100.00;99633.34;5106119;28;20027;-32
2023/04/20 01:36:42;;;;;;;10.95;6.43;;;;;;;8.71;100.00;99613.66;5106278;28;20144;-32
2023/04/20 01:39:08;;;;;;;12.90;7.13;;;;;;;9.28;100.00;99639.34;5105665;28;20574;-33
2023/04/20 01:41:33;;;;;;;37.95;8.35;;;;;;;9.44;100.00;99630.75;5107449;28;20503;-33
2023/04/20 01:43:59;;;;;;;38.08;8.95;;;;;;;9.50;100.00;99632.53;5110190;28;20023;-32
2023/04/20 01:46:24;;;;;;;22.88;8.50;;;;;;;9.52;100.00;99630.47;5110231;28;20031;-32
2023/04/20 01:48:50;;;;;;;48.70;10.02;;;;;;;9.62;100.00;99633.41;5110246;28;20062;-32
2023/04/20 01:51:15;;;;;;;23.15;9.25;;;;;;;9.19;100.00;99639.63;5110041;28;20497;-32
2023/04/20 01:53:40;;;;;;;33.33;9.02;;;;;;;8.92;100.00;99633.72;5110004;28;20110;-32
2023/04/20 01:56:06;;;;;;;34.88;9.63;;;;;;;9.25;100.00;99633.41;5109817;27;20030;-32
2023/04/20 01:58:31;;;;;;;34.15;9.90;;;;;;;9.31;100.00;99620.25;5110430;28;20028;-32
2023/04/20 02:00:57;;;;;;;24.35;9.45;;;;;;;9.50;100.00;99629.03;5109604;28;20526;-32
2023/04/20 02:03:22;;;;;;;15.75;8.90;;;;;;;9.57;100.00;99619.13;5109851;28;20074;-32
2023/04/20 02:05:48;;;;;;;16.15;8.93;;;;;;;9.50;100.00;99629.88;5109709;28;20028;-31
2023/04/20 02:08:13;;;;;;;11.88;8.05;;;;;;;9.34;100.00;99623.28;5109929;28;20585;-32
2023/04/20 02:10:39;;;;;;;12.02;7.97;;;;;;;9.61;100.00;99625.66;5109887;28;20659;-33
2023/04/20 02:13:04;;;;;;;10.85;7.38;;;;;;;9.82;100.00;99621.69;5109471;28;20578;-33
2023/04/20 02:15:29;;;;;;;10.00;7.10;;;;;;;9.54;100.00;99624.91;5109786;28;20436;-33
2023/04/20 02:17:56;;;;;;;10.02;6.75;;;;;;;9.09;100.00;99628.63;5109323;28;20125;-33
2023/04/20 02:20:21;;;;;;;10.02;6.68;;;;;;;9.09;100.00;99625.97;5109759;28;20088;-33
2023/04/20 02:22:47;;;;;;;12.13;8.55;;;;;;;9.03;100.00;99637.50;5108972;28;20020;-31
2023/04/20 02:25:13;;;;;;;17.55;9.35;;;;;;;9.11;100.00;99631.91;5109732;28;20483;-31
2023/04/20 02:27:38;;;;;;;14.43;9.32;;;;;;;8.85;100.00;99638.28;5109385;28;20092;-32
2023/04/20 02:30:04;;;;;;;13.70;7.75;;;;;;;8.80;100.00;99632.81;5109223;28;20607;-31
2023/04/20 02:32:30;;;;;;;11.27;7.20;;;;;;;9.11;100.00;99634.56;5109322;28;20034;-31
2023/04/20 02:34:56;;;;;;;11.55;7.47;;;;;;;9.35;100.00;99632.88;5109158;28;20027;-32
2023/04/20 02:37:21;;;;;;;12.40;8.50;;;;;;;9.62;100.00;99628.09;5109168;28;20027;-31
2023/04/20 02:39:47;;;;;;;15.23;8.82;;;;;;;9.55;100.00;99627.34;5109178;28;20073;-32
2023/04/20 02:42:12;;;;;;;16.92;10.07;;;;;;;9.70;100.00;99626.16;5109644;28;20034;-31
2023/04/20 02:44:37;;;;;;;22.15;9.93;;;;;;;9.69;100.00;99617.34;5109016;28;20107;-32
2023/04/20 02:47:03;;;;;;;31.33;12.32;;;;;;;9.69;100.00;99611.22;5109141;28;20047;-32
2023/04/20 02:49:28;;;;;;;24.40;11.10;;;;;;;9.50;100.00;99629.03;5108938;28;20405;-32
2023/04/20 02:51:54;;;;;;;24.67;10.82;;;;;;;9.03;100.00;99624.19;5109182;28;20047;-32
2023/04/20 02:54:19;;;;;;;28.30;10.30;;;;;;;8.95;100.00;99633.28;5108868;28;20380;-32
2023/04/20 02:56:45;;;;;;;36.72;10.70;;;;;;;9.29;100.00;99622.31;5108919;28;20047;-33
2023/04/20 02:59:10;;;;;;;27.50;9.75;;;;;;;9.42;100.00;99627.50;5108916;28;20055;-33
2023/04/20 03:01:36;;;;;;;31.23;10.13;;;;;;;9.62;100.00;99620.09;5108856;28;20020;-32
2023/04/20 03:04:01;;;;;;;24.67;11.75;;;;;;;9.76;100.00;99622.59;5108788;28;20089;-31
2023/04/20 03:06:27;;;;;;;34.42;14.52;;;;;;;9.74;100.00;99624.66;5104508;28;20024;-32
2023/04/20 03:08:52;;;;;;;51.20;15.93;;;;;;;9.66;100.00;99633.75;5105214;28;20448;-32
2023/04/20 03:11:18;;;;;;;66.85;14.27;;;;;;;9.94;100.00;99625.22;5108440;28;20036;-32
2023/04/20 03:13:44;;;;;;;50.75;13.73;;;;;;;9.89;100.00;99630.41;5108505;28;20039;-32
2023/04/20 03:16:10;;;;;;;86.68;13.93;;;;;;;9.88;100.00;99626.13;5108090;28;20031;-32
2023/04/20 03:18:36;;;;;;;53.05;12.65;;;;;;;9.81;100.00;99617.41;5108224;28;20024;-32
2023/04/20 03:21:01;;;;;;;57.20;12.70;;;;;;;9.79;100.00;99627.47;5108407;28;20470;-31
2023/04/20 03:23:26;;;;;;;42.88;10.52;;;;;;;9.61;100.00;99626.44;5107917;28;20038;-31
2023/04/20 03:25:52;;;;;;;28.00;10.18;;;;;;;8.96;100.00;99631.44;5107968;28;20055;-32
2023/04/20 03:28:18;;;;;;;48.55;10.40;;;;;;;8.85;100.00;99630.31;5108305;28;20051;-32
2023/04/20 03:30:44;;;;;;;28.17;9.30;;;;;;;9.21;100.00;99642.03;5108300;28;20043;-32
2023/04/20 03:33:09;;;;;;;40.97;11.73;;;;;;;9.12;100.00;99622.91;5108070;28;20035;-31
2023/04/20 03:35:38;;;;;;;40.20;15.38;;;;;;;9.28;100.00;99631.34;5107736;28;20439;-34
2023/04/20 03:38:03;;;;;;;;;;;;;;;9.14;100.00;99630.66;5108485;28;20054;-32
2023/04/20 03:40:29;;;;;;;39.53;13.23;;;;;;;9.22;100.00;99633.84;5107526;28;20365;-32
2023/04/20 03:42:54;;;;;;;35.72;10.65;;;;;;;9.17;100.00;99632.88;5107691;28;20412;-32
2023/04/20 03:45:20;;;;;;;15.18;7.20;;;;;;;9.15;100.00;99633.06;5107792;28;20405;-32
2023/04/20 03:47:45;;;;;;;15.82;7.57;;;;;;;9.02;100.00;99626.06;5106815;27;20881;-35
2023/04/20 03:50:11;;;;;;;16.65;6.63;;;;;;;9.03;100.00;99641.00;5102632;28;20114;-33
2023/04/20 03:52:36;;;;;;;9.55;6.57;;;;;;;9.00;100.00;99616.69;5107435;28;20122;-31
2023/04/20 03:55:02;;;;;;;13.18;7.05;;;;;;;9.03;100.00;99637.50;5107926;28;20027;-32
2023/04/20 03:57:27;;;;;;;10.30;6.90;;;;;;;8.93;100.00;99637.19;5107513;28;20049;-32
2023/04/20 03:59:53;;;;;;;9.68;6.00;;;;;;;8.67;100.00;99643.56;5107355;28;20016;-32
2023/04/20 04:02:18;;;;;;;9.32;6.40;;;;;;;8.77;100.00;99634.06;5107378;28;20062;-31
2023/04/20 04:04:44;;;;;;;9.48;6.25;;;;;;;8.94;100.00;99641.47;5107136;28;20032;-32
2023/04/20 04:07:10;;;;;;;8.55;5.60;;;;;;;9.03;100.00;99640.16;5107273;28;20092;-33
2023/04/20 04:09:35;;;;;;;8.02;5.60;;;;;;;8.91;100.00;99640.09;5107595;28;20093;-32
2023/04/20 04:12:00;;;;;;;7.63;5.47;;;;;;;8.54;100.00;99634.66;5107500;28;20134;-32
2023/04/20 04:14:26;;;;;;;7.50;5.20;;;;;;;8.80;100.00;99638.94;5107566;28;20023;-31
2023/04/20 04:16:52;;;;;;;11.65;6.28;;;;;;;8.85;100.00;99644.41;5106778;28;20106;-31
2023/04/20 04:19:17;;;;;;;12.52;6.65;;;;;;;9.15;100.00;99635.75;5107466;28;20039;-32
2023/04/20 04:21:43;;;;;;;26.48;9.50;;;;;;;8.82;100.00;99639.53;5106428;27;20018;-33
2023/04/20 04:24:08;;;;;;;19.15;8.35;;;;;;;8.82;100.00;99639.53;5107062;28;20049;-32
2023/04/20 04:26:33;;;;;;;13.20;8.50;;;;;;;9.04;100.00;99636.47;5106705;28;20462;-32
2023/04/20 04:28:59;;;;;;;17.00;12.82;;;;;;;8.92;100.00;99627.59;5106487;28;20055;-31
2023/04/20 04:31:26;;;;;;;17.33;8.68;;;;;;;9.28;100.00;99628.69;5106680;28;20043;-32
2023/04/20 04:33:51;;;;;;;26.48;7.93;;;;;;;9.47;100.00;99650.78;5106507;28;20023;-32
2023/04/20 04:36:17;;;;;;;13.65;6.97;;;;;;;9.20;100.00;99635.09;5106675;28;20023;-31
2023/04/20 04:38:43;;;;;;;17.33;8.80;;;;;;;9.34;100.00;99647.25;5106381;28;20049;-32
2023/04/20 04:41:12;;;;;;;14.07;7.13;;;;;;;9.58;100.00;99647.38;5106392;28;20121;-32
2023/04/20 04:43:39;;;;;;;18.60;8.73;;;;;;;9.60;100.00;99635.50;5106343;28;20066;-31
2023/04/20 04:46:09;;;;;;;18.20;9.43;;;;;;;9.97;100.00;99640.75;5105881;28;20188;-31
2023/04/20 04:48:36;;;;;;;48.50;43.28;;;;;;;10.08;100.00;99651.69;5106502;28;20035;-32
2023/04/20 04:51:02;;;;;;;39.83;34.22;;;;;;;10.14;100.00;99648.94;5103402;28;20019;-32
2023/04/20 04:53:27;;;;;;;38.10;26.00;;;;;;;10.05;100.00;99652.94;5106725;28;20095;-33
2023/04/20 04:55:53;;;;;;;30.48;18.63;;;;;;;10.02;100.00;99648.06;5106634;28;20027;-34
2023/04/20 04:58:18;;;;;;;25.45;11.95;;;;;;;10.09;100.00;99659.44;5106830;28;20035;-33
2023/04/20 05:00:44;;;;;;;26.17;15.18;;;;;;;10.25;100.00;99666.00;5105977;28;20023;-34
2023/04/20 05:03:09;;;;;;;21.98;14.07;;;;;;;10.36;100.00;99659.94;5106559;28;20027;-34
2023/04/20 05:05:34;;;;;;;29.20;19.65;;;;;;;10.29;100.00;99667.16;5106485;28;20408;-34
2023/04/20 05:08:00;;;;;;;42.25;27.48;;;;;;;10.57;100.00;99657.78;5106165;28;20035;-33
2023/04/20 05:10:25;;;;;;;23.95;14.55;;;;;;;10.60;100.00;99659.97;5106501;28;20039;-34
2023/04/20 05:12:51;;;;;;;27.30;13.45;;;;;;;11.01;100.00;99666.28;5105473;28;20020;-32
2023/04/20 05:15:17;;;;;;;11.13;7.53;;;;;;;10.92;100.00;99662.34;5105636;28;20023;-33
2023/04/20 05:17:43;;;;;;;12.85;7.65;;;;;;;11.12;100.00;99668.16;5105331;28;20820;-33
2023/04/20 05:20:10;;;;;;;11.27;7.43;;;;;;;11.17;100.00;99662.94;5105706;28;20032;-33
2023/04/20 05:22:35;;;;;;;12.50;8.07;;;;;;;11.20;100.00;99667.81;5105882;28;20019;-32
2023/04/20 05:25:01;;;;;;;11.73;7.30;;;;;;;11.43;100.00;99663.50;5105756;28;20408;-32
2023/04/20 05:27:26;;;;;;;9.82;6.85;;;;;;;11.40;100.00;99669.28;5105418;28;20131;-32
2023/04/20 05:29:52;;;;;;;14.07;8.43;;;;;;;11.39;100.00;99654.34;5102083;28;20019;-32
2023/04/20 05:32:17;;;;;;;14.43;9.07;;;;;;;11.36;100.00;99676.16;5105920;28;20027;-33
2023/04/20 05:34:43;;;;;;;14.07;9.40;;;;;;;11.33;100.00;99663.28;5105465;28;20016;-32
2023/04/20 05:37:08;;;;;;;14.40;10.15;;;;;;;11.63;100.00;99663.13;5105240;28;20128;-32
2023/04/20 05:39:34;;;;;;;13.18;10.27;;;;;;;11.78;100.00;99662.63;5105550;28;20069;-31
2023/04/20 05:41:59;;;;;;;14.50;10.02;;;;;;;12.02;100.00;99666.88;5105735;28;20474;-33
2023/04/20 05:44:25;;;;;;;17.50;10.63;;;;;;;11.99;100.00;99667.38;5105459;28;20019;-32
2023/04/20 05:46:50;;;;;;;15.10;10.80;;;;;;;11.99;100.00;99675.38;5102869;28;20034;-33
2023/04/20 05:49:16;;;;;;;18.02;11.85;;;;;;;12.03;100.00;99670.34;5101434;28;20028;-32
2023/04/20 05:51:41;;;;;;;15.15;11.88;;;;;;;12.00;100.00;99673.50;5104030;28;20024;-33
2023/04/20 05:54:06;;;;;;;16.30;11.95;;;;;;;11.91;100.00;99666.91;5105690;28;20018;-31
2023/04/20 05:56:32;;;;;;;16.17;10.85;;;;;;;11.83;100.00;99668.88;5105236;28;20024;-33
2023/04/20 05:58:58;;;;;;;15.63;12.00;;;;;;;12.08;100.00;99667.78;5105342;28;20038;-33
2023/04/20 06:01:23;;;;;;;15.57;11.82;;;;;;;12.19;100.00;99660.78;5105287;28;20413;-32
2023/04/20 06:03:49;;;;;;;15.63;11.35;;;;;;;12.30;100.00;99651.91;5105680;28;20019;-32
2023/04/20 06:06:14;;;;;;;15.43;11.65;;;;;;;12.31;100.00;99669.53;5105459;28;20020;-32
2023/04/20 06:08:41;;;;;;;16.00;12.10;;;;;;;12.45;100.00;99670.88;5106062;28;20024;-32
2023/04/20 06:11:06;;;;;;;16.15;11.63;;;;;;;12.50;100.00;99661.31;5105977;28;20137;-31
2023/04/20 06:13:32;;;;;;;16.02;12.02;;;;;;;12.62;100.00;99675.44;5105670;28;20530;-32
2023/04/20 06:15:57;;;;;;;17.88;11.15;;;;;;;12.73;100.00;99668.38;5105770;28;20073;-32
2023/04/20 06:18:22;;;;;;;16.23;11.60;;;;;;;12.72;100.00;99670.25;5105718;28;20027;-32
2023/04/20 06:20:48;;;;;;;21.65;12.40;;;;;;;12.94;100.00;99669.53;5104357;28;20039;-33
2023/04/20 06:23:14;;;;;;;17.63;12.60;;;;;;;13.14;100.00;99671.72;5105610;28;20492;-32
2023/04/20 06:25:39;;;;;;;17.80;12.52;;;;;;;13.02;100.00;99669.13;5105477;28;20081;-32
2023/04/20 06:28:06;;;;;;;16.58;12.40;;;;;;;12.98;100.00;99652.72;5107460;28;20027;-32
2023/04/20 06:30:34;;;;;;;17.13;11.48;;;;;;;13.02;100.00;99666.44;5109527;28;20031;-32
2023/04/20 06:33:01;;;;;;;17.55;12.35;;;;;;;13.13;100.00;99670.88;5109190;28;20065;-31
2023/04/20 06:35:27;;;;;;;19.00;13.07;;;;;;;13.26;100.00;99670.56;5109150;27;20039;-32
2023/04/20 06:37:56;;;;;;;18.27;13.00;;;;;;;13.29;100.00;99663.91;5109483;28;20019;-34
2023/04/20 06:40:27;;;;;;;16.38;12.98;;;;;;;13.59;100.00;99666.19;5108896;27;20027;-32
2023/04/20 06:42:53;;;;;;;23.30;18.67;;;;;;;13.61;100.00;99666.75;5108697;28;20054;-32
2023/04/20 06:45:19;;;;;;;18.45;15.80;;;;;;;13.71;100.00;99675.97;5108055;28;20412;-32
2023/04/20 06:47:45;;;;;;;19.25;15.18;;;;;;;13.81;100.00;99668.06;5107006;28;20446;-32
2023/04/20 06:50:10;;;;;;;18.20;15.20;;;;;;;14.00;100.00;99674.72;5106965;28;20088;-32
2023/04/20 06:52:37;;;;;;;14.55;11.73;;;;;;;14.28;100.00;99686.28;5108388;28;20031;-32
2023/04/20 06:55:02;;;;;;;17.77;13.60;;;;;;;14.36;100.00;99674.28;5106093;28;21032;-31
2023/04/20 06:57:28;;;;;;;14.32;11.73;;;;;;;14.34;100.00;99679.91;5108478;28;20480;-34
2023/04/20 06:59:53;;;;;;;20.30;16.50;;;;;;;14.56;100.00;99679.06;5108673;28;20019;-32
2023/04/20 07:02:19;;;;;;;17.63;13.23;;;;;;;14.65;99.87;99685.63;5108304;28;20106;-32
2023/04/20 07:04:44;;;;;;;15.80;12.88;;;;;;;14.83;100.00;99677.19;5108750;28;20427;-31
2023/04/20 07:07:10;;;;;;;16.67;12.48;;;;;;;15.15;99.21;99675.53;5108297;28;20043;-31
2023/04/20 07:09:35;;;;;;;13.80;11.63;;;;;;;15.08;96.54;99686.50;5107795;28;20416;-31
2023/04/20 07:12:01;;;;;;;15.23;12.02;;;;;;;14.94;98.27;99682.63;5108170;28;20942;-32
2023/04/20 07:14:27;;;;;;;15.05;12.18;;;;;;;14.86;97.28;99678.53;5108495;28;20023;-31
2023/04/20 07:16:53;;;;;;;15.18;10.60;;;;;;;14.82;90.26;99686.28;5108230;28;20432;-32
2023/04/20 07:19:18;;;;;;;14.88;10.88;;;;;;;14.89;96.55;99683.38;5107887;28;20097;-32
2023/04/20 07:21:44;;;;;;;16.98;11.20;;;;;;;15.11;95.99;99685.97;5107921;28;20123;-32
2023/04/20 07:24:09;;;;;;;13.70;10.38;;;;;;;15.30;90.90;99686.34;5107845;28;20510;-32
2023/04/20 07:26:35;;;;;;;13.90;10.63;;;;;;;15.15;91.98;99684.38;5107417;28;20498;-32
2023/04/20 07:29:00;;;;;;;14.40;11.98;;;;;;;15.35;88.36;99689.09;5106752;28;20020;-31
2023/04/20 07:31:26;;;;;;;14.98;8.70;;;;;;;15.19;81.86;99684.69;5107359;28;20032;-32
2023/04/20 07:33:51;;;;;;;14.75;10.25;;;;;;;14.98;85.00;99689.09;5107659;28;20031;-31
2023/04/20 07:36:17;;;;;;;13.90;10.23;;;;;;;15.31;84.53;99687.19;5107307;28;20073;-31
2023/04/20 07:38:42;;;;;;;15.15;11.05;;;;;;;15.68;82.60;99681.72;5107339;28;20091;-32
2023/04/20 07:41:09;;;;;;;15.23;9.82;;;;;;;15.61;84.96;99679.28;5107091;28;20472;-31
2023/04/20 07:43:34;;;;;;;12.48;10.27;;;;;;;15.84;88.36;99669.19;5104674;28;20119;-31
2023/04/20 07:46:00;;;;;;;13.02;9.60;;;;;;;16.26;83.70;99679.00;5107189;28;20126;-32
2023/04/20 07:48:25;;;;;;;11.45;8.90;;;;;;;16.20;79.45;99690.81;5103461;28;20476;-31
2023/04/20 07:50:51;;;;;;;12.95;9.85;;;;;;;16.32;80.02;99680.63;5104996;28;20539;-32
2023/04/20 07:53:16;;;;;;;13.48;8.63;;;;;;;16.52;75.81;99689.81;5107648;28;20085;-31
2023/04/20 07:55:41;;;;;;;11.45;8.88;;;;;;;16.24;77.07;99686.53;5107442;28;20420;-32
2023/04/20 07:58:07;;;;;;;12.40;9.48;;;;;;;16.61;76.59;99683.63;5107578;28;20424;-31
2023/04/20 08:00:32;;;;;;;12.20;9.52;;;;;;;16.59;76.11;99688.47;5107731;28;20034;-31
2023/04/20 08:02:58;;;;;;;12.55;8.68;;;;;;;16.63;71.22;99691.44;5107087;28;20077;-32
2023/04/20 08:05:23;;;;;;;12.82;8.35;;;;;;;16.80;70.31;99681.22;5107456;27;20032;-31
2023/04/20 08:07:49;;;;;;;12.32;9.88;;;;;;;16.91;69.46;99683.94;5107021;28;20050;-31
2023/04/20 08:10:15;;;;;;;15.18;8.93;;;;;;;16.50;67.64;99686.56;5107545;28;20032;-33
2023/04/20 08:12:40;;;;;;;12.85;8.82;;;;;;;16.61;69.63;99682.81;5107093;28;20062;-31
2023/04/20 08:15:07;;;;;;;13.52;8.50;;;;;;;16.53;67.86;99664.50;5107461;28;20034;-32
2023/04/20 08:17:33;;;;;;;11.13;7.70;;;;;;;16.81;69.27;99680.16;5107108;28;20553;-33
2023/04/20 08:19:58;;;;;;;10.60;7.85;;;;;;;16.94;65.74;99680.69;5106935;28;20043;-32
2023/04/20 08:22:26;;;;;;;12.57;9.02;;;;;;;16.96;67.37;99687.44;5106694;28;20420;-31
2023/04/20 08:24:51;;;;;;;13.38;9.23;;;;;;;16.84;66.85;99682.31;5105810;28;20024;-31
2023/04/20 08:27:17;;;;;;;11.95;8.55;;;;;;;17.30;64.73;99667.19;5106970;28;20032;-31
2023/04/20 08:29:42;;;;;;;11.50;7.72;;;;;;;17.11;60.29;99681.22;5106855;28;20055;-31
2023/04/20 08:32:08;;;;;;;16.58;7.95;;;;;;;17.33;61.52;99677.44;5107786;27;20035;-31
2023/04/20 08:34:34;;;;;;;11.02;7.88;;;;;;;17.48;61.07;99677.38;5106637;28;20038;-32
2023/04/20 08:36:59;;;;;;;10.45;8.70;;;;;;;17.72;64.35;99665.97;5106893;28;20012;-31
2023/04/20 08:39:25;;;;;;;12.13;8.32;;;;;;;18.09;61.45;99681.75;5106733;28;20123;-31
2023/04/20 08:41:54;;;;;;;13.60;8.80;;;;;;;18.26;61.77;99667.88;5106568;28;20045;-32
2023/04/20 08:44:20;;;;;;;10.85;8.48;;;;;;;17.96;59.37;99680.47;5106616;28;20063;-31
2023/04/20 08:46:47;;;;;;;10.55;7.93;;;;;;;18.11;59.40;99665.28;5106394;28;20047;-31
2023/04/20 08:49:17;;;;;;;12.50;8.57;;;;;;;18.11;59.61;99678.78;5106509;28;20020;-31
2023/04/20 08:51:44;;;;;;;11.00;8.55;;;;;;;17.67;59.85;99673.00;5106394;28;20064;-32
2023/04/20 08:54:10;;;;;;;12.90;8.55;;;;;;;17.64;63.61;99668.16;5106499;28;20501;-31
2023/04/20 08:56:43;;;;;;;11.73;8.02;;;;;;;17.71;63.65;99661.66;5106283;28;20030;-31
2023/04/20 08:59:10;;;;;;;10.90;7.95;;;;;;;17.68;59.59;99663.81;5106467;28;20028;-32
2023/04/20 09:01:42;;;;;;;10.35;8.13;;;;;;;17.66;59.62;99660.59;5106007;28;20726;-33
2023/04/20 09:04:19;;;;;;;12.65;8.68;;;;;;;18.00;61.46;99659.13;5106419;28;20022;-33
2023/04/20 09:06:45;;;;;;;9.15;7.20;;;;;;;18.00;60.21;99670.75;5105954;28;20055;-31
2023/04/20 09:09:11;;;;;;;10.57;7.82;;;;;;;18.22;57.90;99656.03;5106375;28;20031;-35
2023/04/20 09:11:36;;;;;;;10.30;7.88;;;;;;;18.39;58.22;99655.69;5106370;28;20031;-32
2023/04/20 09:14:09;;;;;;;10.27;7.32;;;;;;;18.19;55.77;99651.22;5106278;28;20136;-32
2023/04/20 09:16:38;;;;;;;10.70;8.23;;;;;;;18.42;55.75;99666.69;5106012;28;20488;-31
2023/04/20 09:19:04;;;;;;;11.30;8.60;;;;;;;18.50;56.40;99672.59;5106031;28;20069;-33
2023/04/20 09:21:31;;;;;;;11.25;7.72;;;;;;;18.30;56.25;99668.94;5105878;28;20061;-32
2023/04/20 09:23:59;;;;;;;11.33;8.13;;;;;;;18.39;56.23;99667.28;5106282;28;20031;-32
2023/04/20 09:26:25;;;;;;;10.52;8.75;;;;;;;18.56;54.95;99656.06;5105899;28;20035;-32
2023/04/20 09:28:51;;;;;;;10.00;7.90;;;;;;;18.58;53.59;99666.59;5105888;28;20031;-32
2023/04/20 09:31:18;;;;;;;11.68;8.20;;;;;;;18.91;54.41;99656.91;5106077;28;20027;-34
2023/04/20 09:33:43;;;;;;;10.82;7.78;;;;;;;18.95;55.70;99660.63;5105949;28;20118;-33
2023/04/20 09:36:09;;;;;;;15.13;8.63;;;;;;;19.18;52.24;99650.94;5105944;28;20030;-31
2023/04/20 09:38:35;;;;;;;8.95;7.68;;;;;;;19.42;52.49;99647.47;5105706;28;20047;-31
2023/04/20 09:41:01;;;;;;;9.75;7.78;;;;;;;19.70;51.79;99655.81;5105863;28;20104;-31
2023/04/20 09:43:28;;;;;;;9.45;7.13;;;;;;;19.18;52.10;99639.34;5105972;28;20043;-32
2023/04/20 09:45:55;;;;;;;11.07;7.20;;;;;;;19.28;52.03;99639.22;5105431;28;20088;-31
2023/04/20 09:48:21;;;;;;;10.67;7.57;;;;;;;19.35;51.63;99655.94;5105918;28;20035;-32
2023/04/20 09:50:47;;;;;;;8.60;6.72;;;;;;;19.72;45.50;99640.13;5105617;28;20615;-31
2023/04/20 09:53:15;;;;;;;10.45;7.80;;;;;;;20.03;51.50;99644.03;5106142;28;20031;-32
2023/04/20 09:55:48;;;;;;;9.55;7.25;;;;;;;20.07;46.15;99622.59;5105459;28;20028;-31
2023/04/20 09:58:13;;;;;;;12.43;7.90;;;;;;;20.07;50.18;99625.31;5105633;28;20019;-31
2023/04/20 10:00:38;;;;;;;12.27;7.95;;;;;;;20.54;46.34;99638.94;5105420;28;20024;-31
2023/04/20 10:03:07;;;;;;;10.50;7.43;;;;;;;20.19;46.54;99611.34;5107635;28;20060;-33
2023/04/20 10:05:38;;;;;;;10.13;7.03;;;;;;;19.90;45.98;99617.69;5109639;28;20020;-32
2023/04/20 10:08:04;;;;;;;10.52;6.85;;;;;;;19.92;42.49;99620.91;5109934;28;20039;-32
2023/04/20 10:10:41;;;;;;;11.63;7.28;;;;;;;20.16;44.65;99606.50;5109526;28;20031;-32
2023/04/20 10:13:06;;;;;;;11.85;6.95;;;;;;;20.27;44.15;99616.88;5109351;28;20475;-31
2023/04/20 10:15:39;;;;;;;12.77;7.55;;;;;;;20.89;45.12;99615.09;5109547;28;20027;-32
2023/04/20 10:18:23;;;;;;;9.50;7.38;;;;;;;21.62;41.94;99603.38;5109372;28;20123;-32
2023/04/20 10:20:49;;;;;;;8.52;6.57;;;;;;;21.27;41.04;99605.69;5109408;28;20114;-33
2023/04/20 10:23:17;;;;;;;9.07;7.05;;;;;;;20.98;41.85;99586.19;5108997;28;20030;-31
2023/04/20 10:25:53;;;;;;;9.85;7.18;;;;;;;21.60;41.33;99600.16;5109267;27;20158;-31
2023/04/20 10:28:18;;;;;;;12.43;8.15;;;;;;;21.98;42.46;99596.38;5109292;28;20039;-31
2023/04/20 10:30:51;;;;;;;9.45;7.00;;;;;;;21.52;42.43;99600.09;5108679;28;20042;-32
2023/04/20 10:33:18;;;;;;;10.15;7.28;;;;;;;21.00;40.70;99597.53;5109589;28;20104;-31
2023/04/20 10:35:54;;;;;;;11.75;7.93;;;;;;;20.73;44.36;99590.97;5108977;28;20111;-32
2023/04/20 10:38:33;;;;;;;10.30;8.10;;;;;;;21.27;50.20;99594.84;5109123;28;20031;-31
2023/04/20 10:41:09;;;;;;;9.63;7.53;;;;;;;21.89;40.80;99588.16;5109091;28;20077;-31
2023/04/20 10:43:35;;;;;;;10.20;7.70;;;;;;;21.54;46.75;99579.69;5108915;28;20051;-32
2023/04/20 10:46:00;;;;;;;8.02;6.47;;;;;;;22.22;39.36;99607.75;5109015;28;20059;-32
2023/04/20 10:48:26;;;;;;;8.45;6.47;;;;;;;22.46;38.16;99596.59;5108789;28;20428;-32
2023/04/20 10:50:51;;;;;;;7.30;5.93;;;;;;;22.10;38.34;99595.84;5108761;28;20042;-32
2023/04/20 10:53:21;;;;;;;10.13;6.10;;;;;;;21.81;37.52;99595.09;5108878;28;20027;-31
2023/04/20 10:55:57;;;;;;;7.88;6.55;;;;;;;21.85;39.23;99581.72;5108809;28;20028;-33
2023/04/20 10:58:23;;;;;;;12.77;6.43;;;;;;;22.33;37.51;99597.50;5108781;28;20032;-32
2023/04/20 11:01:04;;;;;;;8.02;6.00;;;;;;;23.04;39.00;99600.31;5108536;28;20028;-32
2023/04/20 11:03:31;;;;;;;9.85;5.95;;;;;;;23.42;33.38;99593.56;5107443;28;20126;-32
2023/04/20 11:06:00;;;;;;;7.47;5.37;;;;;;;23.74;32.19;99597.81;5108315;28;20024;-31
2023/04/20 11:08:39;;;;;;;7.97;5.30;;;;;;;23.50;32.53;99600.97;5108384;28;20107;-32
2023/04/20 11:11:17;;;;;;;10.65;6.43;;;;;;;23.12;38.02;99585.16;5108583;28;20026;-31
2023/04/20 11:13:42;;;;;;;10.20;6.65;;;;;;;23.46;38.31;99586.38;5107420;28;20050;-31
2023/04/20 11:16:16;;;;;;;10.00;5.60;;;;;;;23.76;33.77;99592.03;5108088;28;20035;-31
2023/04/20 11:18:52;;;;;;;7.80;6.40;;;;;;;24.56;36.98;99589.00;5108412;28;20035;-32